Time;durP1;ratioP1;P1;durP2;ratioP2;P2;SDS_P1;SDS_P2;PMS_P1;PMS_P2;Temp;Humidity;BMP_temperature;BMP_pressure;BME280_temperature;BME280_humidity;BME280_pressure;Samples;Min_cycle;Max_cycle;Signal;HPM_P1;HPM_P2
2022/09/10 00:00:04;;;;;;;;;4.00;2.75;;;;;-144.96;100.00;116156.88;5081928;27;45351;-84
2022/09/10 00:02:31;;;;;;;;;2.00;2.00;;;;;-144.96;100.00;116156.88;5083956;27;45378;-84
2022/09/10 00:04:59;;;;;;;;;2.20;2.00;;;;;-144.96;100.00;116156.88;5081880;28;45388;-84
2022/09/10 00:07:24;;;;;;;;;2.80;1.20;;;;;-144.96;100.00;116156.88;5083456;27;45440;-84
2022/09/10 00:09:50;;;;;;;;;4.00;2.75;;;;;-144.96;100.00;116156.88;5084505;28;45529;-85
2022/09/10 00:12:15;;;;;;;;;2.00;2.00;;;;;-144.96;100.00;116156.88;5081251;27;45378;-85
2022/09/10 00:14:41;;;;;;;;;4.00;4.00;;;;;-144.96;100.00;116156.88;5081933;27;45526;-85
2022/09/10 00:17:06;;;;;;;;;2.50;2.50;;;;;-144.96;100.00;116156.88;5080987;27;45430;-84
2022/09/10 00:19:33;;;;;;;;;4.00;2.75;;;;;-144.96;100.00;116156.88;5080627;27;46043;-84
2022/09/10 00:21:58;;;;;;;;;4.40;3.60;;;;;-144.96;100.00;116156.88;5083232;27;44750;-84
2022/09/10 00:24:24;;;;;;;;;2.75;2.00;;;;;-144.96;100.00;116156.88;5083388;27;45158;-84
2022/09/10 00:26:50;;;;;;;;;1.00;1.00;;;;;-144.96;100.00;116156.88;5083910;27;45312;-84
2022/09/10 00:29:15;;;;;;;;;2.75;2.00;;;;;-144.96;100.00;116156.88;5083707;27;45324;-84
2022/09/10 00:31:42;;;;;;;;;5.25;2.00;;;;;-144.96;100.00;116156.88;5082626;27;44990;-84
2022/09/10 00:34:10;;;;;;;;;5.00;2.00;;;;;-144.96;100.00;116156.88;5080265;27;44814;-84
2022/09/10 00:36:40;;;;;;;;;3.60;2.60;;;;;-144.96;100.00;116156.88;5082941;27;45526;-84
2022/09/10 00:39:09;;;;;;;;;3.00;3.00;;;;;-144.96;100.00;116156.88;5084208;27;45473;-84
2022/09/10 00:41:36;;;;;;;;;2.20;2.20;;;;;-144.96;100.00;116156.88;5080799;27;45366;-82
2022/09/10 00:44:05;;;;;;;;;1.80;1.80;;;;;-144.96;100.00;116156.88;5077218;27;45295;-82
2022/09/10 00:46:47;;;;;;;;;3.60;3.00;;;;;-144.96;100.00;116156.88;5076929;27;45460;-82
2022/09/10 00:49:25;;;;;;;;;2.00;2.00;;;;;-144.96;100.00;116156.88;5076500;27;45398;-82
2022/09/10 00:51:52;;;;;;;;;2.20;2.20;;;;;-144.96;100.00;116156.88;5077151;27;45418;-82
2022/09/10 00:54:22;;;;;;;;;3.40;2.00;;;;;-144.96;100.00;116156.88;5077356;27;45445;-81
2022/09/10 00:56:50;;;;;;;;;3.00;2.80;;;;;-144.96;100.00;116156.88;5076687;27;45640;-82
2022/09/10 00:59:19;;;;;;;;;2.00;2.00;;;;;-144.96;100.00;116156.88;5076507;28;45444;-82
2022/09/10 01:01:44;;;;;;;;;2.60;2.00;;;;;-144.96;100.00;116156.88;5076731;27;45362;-82
2022/09/10 01:04:10;;;;;;;;;3.00;2.75;;;;;-144.96;100.00;116156.88;5075510;28;45494;-82
2022/09/10 01:06:39;;;;;;;;;1.75;1.75;;;;;-144.96;100.00;116156.88;5075876;28;45390;-82
2022/09/10 01:09:05;;;;;;;;;2.00;2.00;;;;;-144.96;100.00;116156.88;5076614;27;45593;-82
2022/09/10 01:11:45;;;;;;;;;5.80;3.00;;;;;-144.96;100.00;116156.88;5079225;27;44796;-82
2022/09/10 01:14:28;;;;;;;;;2.00;2.00;;;;;-144.96;100.00;116156.88;5082497;27;45497;-81
2022/09/10 01:17:10;;;;;;;;;5.20;2.60;;;;;-144.96;100.00;116156.88;5082613;27;45477;-82
2022/09/10 01:19:51;;;;;;;;;3.60;3.00;;;;;-144.96;100.00;116156.88;5081753;27;45354;-81
2022/09/10 01:22:42;;;;;;;;;3.00;3.00;;;;;-144.96;100.00;116156.88;5081354;27;45132;-82
2022/09/10 01:25:26;;;;;;;;;2.20;2.20;;;;;-144.96;100.00;116156.88;5058164;28;45414;-82
2022/09/10 01:27:58;;;;;;;;;2.80;2.20;;;;;-144.96;100.00;116156.88;5056452;28;45536;-82
2022/09/10 01:30:30;;;;;;;;;2.20;2.20;;;;;-144.96;100.00;116156.88;5056393;28;45519;-82
2022/09/10 01:33:06;;;;;;;;;3.00;3.00;;;;;-144.96;100.00;116156.88;5056060;28;44783;-82
2022/09/10 01:35:48;;;;;;;;;5.20;1.40;;;;;-144.96;100.00;116156.88;5070231;28;45718;-85
2022/09/10 01:38:41;;;;;;;;;2.80;1.40;;;;;-144.96;100.00;116156.88;5078168;28;45313;-84
2022/09/10 01:41:07;;;;;;;;;1.80;1.80;;;;;-144.96;100.00;116156.88;5074560;28;45501;-84
2022/09/10 01:43:33;;;;;;;;;1.40;1.00;;;;;-144.96;100.00;116156.88;5076131;28;45265;-82
2022/09/10 01:46:28;;;;;;;;;4.80;3.00;;;;;-144.96;100.00;116156.88;5076493;28;45518;-81
2022/09/10 01:49:24;;;;;;;;;2.40;2.40;;;;;-144.96;100.00;116156.88;5070542;28;45340;-81
2022/09/10 01:52:04;;;;;;;;;5.00;3.00;;;;;-144.96;100.00;116156.88;5077219;28;45424;-81
2022/09/10 01:54:57;;;;;;;;;2.20;1.80;;;;;-144.96;100.00;116156.88;5076480;28;45342;-82
2022/09/10 01:57:47;;;;;;;;;2.00;2.00;;;;;-144.96;100.00;116156.88;5076468;28;45265;-82
2022/09/10 02:00:16;;;;;;;;;3.80;3.00;;;;;-144.96;100.00;116156.88;5076242;28;45497;-82
2022/09/10 02:02:56;;;;;;;;;2.00;2.00;;;;;-144.96;100.00;116156.88;5092836;27;45367;-82
2022/09/10 02:05:23;;;;;;;;;3.40;1.60;;;;;-144.96;100.00;116156.88;5099754;27;44876;-81
2022/09/10 02:07:54;;;;;;;;;3.00;1.60;;;;;-144.96;100.00;116156.88;5100918;27;45441;-81
2022/09/10 02:10:20;;;;;;;;;3.60;2.20;;;;;-144.96;100.00;116156.88;5099035;27;45558;-82
2022/09/10 02:12:45;;;;;;;;;1.75;0.00;;;;;-144.96;100.00;116156.88;5096830;27;46573;-81
2022/09/10 02:15:11;;;;;;;;;3.00;1.00;;;;;-144.96;100.00;116156.88;5102050;27;45469;-82
2022/09/10 02:17:38;;;;;;;;;3.00;3.00;;;;;-144.96;100.00;116156.88;5102184;27;45369;-81
2022/09/10 02:20:13;;;;;;;;;3.60;1.40;;;;;-144.96;100.00;116156.88;5103912;27;45462;-82
2022/09/10 02:22:43;;;;;;;;;6.00;2.40;;;;;-144.96;100.00;116156.88;5098275;27;45373;-81
2022/09/10 02:25:09;;;;;;;;;3.00;2.00;;;;;-144.96;100.00;116156.88;5098851;27;45474;-81
2022/09/10 02:27:37;;;;;;;;;3.00;3.00;;;;;-144.96;100.00;116156.88;5098819;27;45228;-82
2022/09/10 02:30:03;;;;;;;;;2.80;2.00;;;;;-144.96;100.00;116156.88;5099248;27;45414;-82
2022/09/10 02:32:28;;;;;;;;;2.80;2.80;;;;;-144.96;100.00;116156.88;5097064;27;47597;-82
2022/09/10 02:34:54;;;;;;;;;4.00;3.00;;;;;-144.96;100.00;116156.88;5089872;27;45246;-81
2022/09/10 02:37:20;;;;;;;;;2.00;2.00;;;;;-144.96;100.00;116156.88;5077969;27;44844;-81
2022/09/10 02:39:45;;;;;;;;;4.00;2.75;;;;;-144.96;100.00;116156.88;5077978;27;45326;-81
2022/09/10 02:42:14;;;;;;;;;2.00;2.00;;;;;-144.96;100.00;116156.88;5076023;27;47222;-81
2022/09/10 02:44:40;;;;;;;;;1.80;1.60;;;;;-144.96;100.00;116156.88;5077574;27;45369;-82
2022/09/10 02:47:05;;;;;;;;;2.00;2.00;;;;;-144.96;100.00;116156.88;5077523;27;45757;-81
2022/09/10 02:49:30;;;;;;;;;5.00;2.00;;;;;-144.96;100.00;116156.88;5077841;27;45400;-81
2022/09/10 02:51:56;;;;;;;;;5.25;3.00;;;;;-144.96;100.00;116156.88;5077418;27;45291;-81
2022/09/10 02:54:21;;;;;;;;;3.25;2.25;;;;;-144.96;100.00;116156.88;5080980;27;45272;-84
2022/09/10 02:56:48;;;;;;;;;4.00;3.00;;;;;-144.96;100.00;116156.88;5083600;27;45134;-84
2022/09/10 02:59:15;;;;;;;;;4.80;2.40;;;;;-144.96;100.00;116156.88;5078912;27;44986;-84
2022/09/10 03:01:40;;;;;;;;;4.80;4.00;;;;;-144.96;100.00;116156.88;5078221;27;45402;-84
2022/09/10 03:04:06;;;;;;;;;5.50;3.25;;;;;-144.96;100.00;116156.88;5077929;28;45366;-84
2022/09/10 03:06:32;;;;;;;;;4.60;3.00;;;;;-144.96;100.00;116156.88;5078661;27;45580;-83
2022/09/10 03:08:58;;;;;;;;;5.25;3.25;;;;;-144.96;100.00;116156.88;5079007;27;45307;-84
2022/09/10 03:11:24;;;;;;;;;4.00;2.50;;;;;-144.96;100.00;116156.88;5078977;28;45413;-85
2022/09/10 03:13:49;;;;;;;;;4.20;2.20;;;;;-144.96;100.00;116156.88;5078586;27;45437;-85
2022/09/10 03:16:15;;;;;;;;;2.25;2.00;;;;;-144.96;100.00;116156.88;5078457;27;45525;-84
2022/09/10 03:18:42;;;;;;;;;4.80;2.80;;;;;-144.96;100.00;116156.88;5081588;27;45636;-84
2022/09/10 03:21:14;;;;;;;;;6.40;2.00;;;;;-144.96;100.00;116156.88;5086324;27;46202;-84
2022/09/10 03:23:40;;;;;;;;;3.80;1.00;;;;;-144.96;100.00;116156.88;5085596;27;45342;-84
2022/09/10 03:26:07;;;;;;;;;4.00;3.00;;;;;-144.96;100.00;116156.88;5082722;27;45425;-85
2022/09/10 03:28:32;;;;;;;;;4.00;2.60;;;;;-144.96;100.00;116156.88;5083746;27;45275;-84
2022/09/10 03:30:58;;;;;;;;;2.00;2.00;;;;;-144.96;100.00;116156.88;5081813;27;45400;-84
2022/09/10 03:33:24;;;;;;;;;2.20;2.00;;;;;-144.96;100.00;116156.88;5077155;27;45416;-82
2022/09/10 03:35:53;;;;;;;;;2.50;2.50;;;;;-144.96;100.00;116156.88;5076970;27;45446;-81
2022/09/10 03:38:18;;;;;;;;;3.20;2.20;;;;;-144.96;100.00;116156.88;5076538;27;45371;-82
2022/09/10 03:40:44;;;;;;;;;4.00;3.00;;;;;-144.96;100.00;116156.88;5076265;27;46862;-82
2022/09/10 03:43:09;;;;;;;;;2.25;2.25;;;;;-144.96;100.00;116156.88;5076996;27;45516;-81
2022/09/10 03:45:35;;;;;;;;;5.00;3.00;;;;;-144.96;100.00;116156.88;5077454;27;45336;-82
2022/09/10 03:48:02;;;;;;;;;3.50;2.00;;;;;-144.96;100.00;116156.88;5077038;27;44815;-81
2022/09/10 03:50:27;;;;;;;;;3.00;2.00;;;;;-144.96;100.00;116156.88;5076647;27;46398;-82
2022/09/10 03:52:52;;;;;;;;;4.75;2.75;;;;;-144.96;100.00;116156.88;5076661;27;45453;-81
2022/09/10 03:55:18;;;;;;;;;3.00;3.00;;;;;-144.96;100.00;116156.88;5076240;27;44764;-82
2022/09/10 03:57:44;;;;;;;;;2.00;2.00;;;;;-144.96;100.00;116156.88;5076506;27;45409;-82
2022/09/10 04:00:11;;;;;;;;;5.20;4.00;;;;;-144.96;100.00;116156.88;5076259;27;45460;-81
2022/09/10 04:02:36;;;;;;;;;3.80;3.40;;;;;-144.96;100.00;116156.88;5076617;27;45487;-82
2022/09/10 04:05:03;;;;;;;;;2.00;2.00;;;;;-144.96;100.00;116156.88;5077139;27;45189;-81
2022/09/10 04:07:29;;;;;;;;;3.40;3.00;;;;;-144.96;100.00;116156.88;5076960;27;45422;-81
2022/09/10 04:09:54;;;;;;;;;3.00;1.60;;;;;-144.96;100.00;116156.88;5078158;27;45343;-82
2022/09/10 04:12:20;;;;;;;;;3.50;1.75;;;;;-144.96;100.00;116156.88;5076036;27;45532;-82
2022/09/10 04:14:45;;;;;;;;;2.00;2.00;;;;;-144.96;100.00;116156.88;5076361;27;45279;-81
2022/09/10 04:17:11;;;;;;;;;2.75;2.00;;;;;-144.96;100.00;116156.88;5078166;27;45540;-84
2022/09/10 04:19:39;;;;;;;;;4.60;3.00;;;;;-144.96;100.00;116156.88;5079619;27;45373;-84
2022/09/10 04:22:05;;;;;;;;;4.80;2.80;;;;;-144.96;100.00;116156.88;5082301;27;45378;-81
2022/09/10 04:24:30;;;;;;;;;2.00;2.00;;;;;-144.96;100.00;116156.88;5081268;27;45411;-81
2022/09/10 04:26:56;;;;;;;;;6.25;3.00;;;;;-144.96;100.00;116156.88;5079818;27;45488;-82
2022/09/10 04:29:22;;;;;;;;;6.40;3.80;;;;;-144.96;100.00;116156.88;5076051;27;45203;-81
2022/09/10 04:31:47;;;;;;;;;4.25;3.25;;;;;-144.96;100.00;116156.88;5076534;27;45181;-82
2022/09/10 04:34:13;;;;;;;;;3.00;1.00;;;;;-144.96;100.00;116156.88;5076501;27;45374;-82
2022/09/10 04:36:38;;;;;;;;;2.75;2.75;;;;;-144.96;100.00;116156.88;5076683;27;45388;-81
2022/09/10 04:39:03;;;;;;;;;5.50;1.00;;;;;-144.96;100.00;116156.88;5076266;27;45423;-82
2022/09/10 04:41:29;;;;;;;;;5.50;3.00;;;;;-144.96;100.00;116156.88;5074298;28;44811;-82
2022/09/10 04:43:54;;;;;;;;;2.00;2.00;;;;;-144.96;100.00;116156.88;5074679;27;45632;-82
2022/09/10 04:46:19;;;;;;;;;4.75;3.00;;;;;-144.96;100.00;116156.88;5075916;27;45304;-82
2022/09/10 04:48:45;;;;;;;;;2.25;2.00;;;;;-144.96;100.00;116156.88;5076766;27;49136;-81
2022/09/10 04:51:13;;;;;;;;;2.75;2.50;;;;;-144.96;100.00;116156.88;5078296;27;45371;-81
2022/09/10 04:53:39;;;;;;;;;1.80;1.80;;;;;-144.96;100.00;116156.88;5080093;27;45251;-82
2022/09/10 04:56:05;;;;;;;;;3.40;3.40;;;;;-144.96;100.00;116156.88;5079174;27;44811;-81
2022/09/10 04:58:30;;;;;;;;;5.00;3.00;;;;;-144.96;100.00;116156.88;5079290;28;46302;-81
2022/09/10 05:00:56;;;;;;;;;2.50;1.50;;;;;-144.96;100.00;116156.88;5079474;27;45317;-82
2022/09/10 05:03:22;;;;;;;;;3.25;2.00;;;;;-144.96;100.00;116156.88;5079529;27;45338;-81
2022/09/10 05:05:47;;;;;;;;;3.60;2.00;;;;;-144.96;100.00;116156.88;5080147;27;45446;-82
2022/09/10 05:08:13;;;;;;;;;4.50;2.75;;;;;-144.96;100.00;116156.88;5079643;27;45281;-82
2022/09/10 05:10:40;;;;;;;;;4.00;3.00;;;;;-144.96;100.00;116156.88;5079627;28;45303;-81
2022/09/10 05:13:06;;;;;;;;;1.40;1.40;;;;;-144.96;100.00;116156.88;5079584;27;45390;-81
2022/09/10 05:15:33;;;;;;;;;4.40;2.00;;;;;-144.96;100.00;116156.88;5078957;27;44878;-81
2022/09/10 05:17:59;;;;;;;;;2.00;2.00;;;;;-144.96;100.00;116156.88;5080368;27;46227;-84
2022/09/10 05:20:26;;;;;;;;;2.25;2.25;;;;;-144.96;100.00;116156.88;5080442;27;45367;-84
2022/09/10 05:22:53;;;;;;;;;3.40;3.40;;;;;-144.96;100.00;116156.88;5083052;28;45236;-84
2022/09/10 05:25:19;;;;;;;;;2.20;2.20;;;;;-144.96;100.00;116156.88;5083350;27;44918;-84
2022/09/10 05:27:44;;;;;;;;;5.00;3.25;;;;;-144.96;100.00;116156.88;5086676;28;45338;-84
2022/09/10 05:30:09;;;;;;;;;2.25;2.25;;;;;-144.96;100.00;116156.88;5086740;27;44826;-84
2022/09/10 05:32:35;;;;;;;;;3.75;3.00;;;;;-144.96;100.00;116156.88;5080726;28;45370;-84
2022/09/10 05:35:01;;;;;;;;;5.00;2.25;;;;;-144.96;100.00;116156.88;5080303;27;45500;-84
2022/09/10 05:37:26;;;;;;;;;4.25;2.75;;;;;-144.96;100.00;116156.88;5080133;27;45512;-84
2022/09/10 05:39:52;;;;;;;;;3.00;3.00;;;;;-144.96;100.00;116156.88;5080344;27;45391;-84
2022/09/10 05:42:17;;;;;;;;;4.75;2.25;;;;;-144.96;100.00;116156.88;5080082;27;45205;-84
2022/09/10 05:44:43;;;;;;;;;2.00;2.00;;;;;-144.96;100.00;116156.88;5079940;27;45199;-84
2022/09/10 05:47:08;;;;;;;;;6.75;3.00;;;;;-144.96;100.00;116156.88;5079250;27;45433;-84
2022/09/10 05:49:34;;;;;;;;;2.75;2.50;;;;;-144.96;100.00;116156.88;5079356;27;45566;-86
2022/09/10 05:52:00;;;;;;;;;4.00;2.00;;;;;-144.96;100.00;116156.88;5080370;27;44755;-85
2022/09/10 05:54:26;;;;;;;;;5.20;3.00;;;;;-144.96;100.00;116156.88;5079518;27;45333;-85
2022/09/10 05:56:51;;;;;;;;;2.50;1.25;;;;;-144.96;100.00;116156.88;5080303;27;45346;-85
2022/09/10 05:59:16;;;;;;;;;4.50;2.00;;;;;-144.96;100.00;116156.88;5081125;27;45271;-85
2022/09/10 06:01:42;;;;;;;;;2.00;2.00;;;;;-144.96;100.00;116156.88;5078199;28;45355;-84
2022/09/10 06:04:08;;;;;;;;;2.75;2.75;;;;;-144.96;100.00;116156.88;5079673;27;45272;-84
2022/09/10 06:06:33;;;;;;;;;2.60;2.60;;;;;-144.96;100.00;116156.88;5079901;27;45972;-84
2022/09/10 06:08:59;;;;;;;;;2.00;2.00;;;;;-144.96;100.00;116156.88;5078486;28;44686;-84
2022/09/10 06:11:24;;;;;;;;;5.00;3.00;;;;;-144.96;100.00;116156.88;5080107;27;45226;-84
2022/09/10 06:13:49;;;;;;;;;2.00;2.00;;;;;-144.96;100.00;116156.88;5084822;28;45256;-85
2022/09/10 06:16:16;;;;;;;;;3.25;0.00;;;;;-144.96;100.00;116156.88;5083670;27;45157;-84
2022/09/10 06:18:43;;;;;;;;;4.40;3.20;;;;;-144.96;100.00;116156.88;5077673;27;45491;-83
2022/09/10 06:21:17;;;;;;;;;2.00;2.00;;;;;-144.96;100.00;116156.88;5079148;27;45362;-84
2022/09/10 06:23:43;;;;;;;;;3.40;3.00;;;;;-144.96;100.00;116156.88;5078768;27;45369;-85
2022/09/10 06:26:15;;;;;;;;;2.80;2.80;;;;;-144.96;100.00;116156.88;5082371;27;45495;-85
2022/09/10 06:28:42;;;;;;;;;3.00;3.00;;;;;-144.96;100.00;116156.88;5084101;27;45427;-84
2022/09/10 06:31:10;;;;;;;;;2.40;2.20;;;;;-144.96;100.00;116156.88;5085588;28;45425;-86
2022/09/10 06:33:36;;;;;;;;;4.20;2.60;;;;;-144.96;100.00;116156.88;5079478;27;45556;-82
2022/09/10 06:36:02;;;;;;;;;2.75;2.75;;;;;-144.96;100.00;116156.88;5079843;27;45713;-83
2022/09/10 06:38:30;;;;;;;;;0.00;0.00;;;;;-144.96;100.00;116156.88;5077345;27;46329;-83
2022/09/10 06:40:58;;;;;;;;;2.40;2.40;;;;;-144.96;100.00;116156.88;5079095;27;45410;-83
2022/09/10 06:43:27;;;;;;;;;3.60;2.00;;;;;-144.96;100.00;116156.88;5081180;27;44837;-83
2022/09/10 06:45:53;;;;;;;;;3.00;3.00;;;;;-144.96;100.00;116156.88;5080270;27;45994;-84
2022/09/10 06:48:20;;;;;;;;;5.20;3.80;;;;;-144.96;100.00;116156.88;5078230;28;45318;-84
2022/09/10 06:50:59;;;;;;;;;3.20;2.80;;;;;-144.96;100.00;116156.88;5078751;27;45397;-83
2022/09/10 06:53:27;;;;;;;;;4.00;4.00;;;;;-144.96;100.00;116156.88;5079374;27;45493;-83
2022/09/10 06:55:53;;;;;;;;;3.60;2.20;;;;;-144.96;100.00;116156.88;5078672;27;45320;-83
2022/09/10 06:58:23;;;;;;;;;4.40;3.00;;;;;-144.96;100.00;116156.88;5078405;27;45478;-83
2022/09/10 07:00:50;;;;;;;;;1.80;1.60;;;;;-144.96;100.00;116156.88;5077836;27;45283;-83
2022/09/10 07:03:18;;;;;;;;;1.80;1.80;;;;;-144.96;100.00;116156.88;5079592;27;44878;-83
2022/09/10 07:05:44;;;;;;;;;4.60;4.00;;;;;-144.96;100.00;116156.88;5079961;27;45526;-83
2022/09/10 07:08:14;;;;;;;;;3.00;2.80;;;;;-144.96;100.00;116156.88;5079386;27;45315;-83
2022/09/10 07:10:40;;;;;;;;;4.00;2.60;;;;;-144.96;100.00;116156.88;5077592;27;45366;-83
2022/09/10 07:13:06;;;;;;;;;3.20;2.00;;;;;-144.96;100.00;116156.88;5077337;27;45428;-82
2022/09/10 07:15:32;;;;;;;;;2.00;2.00;;;;;-144.96;100.00;116156.88;5075743;28;45682;-82
2022/09/10 07:17:59;;;;;;;;;4.00;2.00;;;;;-144.96;100.00;116156.88;5075846;27;45985;-82
2022/09/10 07:20:28;;;;;;;;;0.60;0.60;;;;;-144.96;100.00;116156.88;5075982;27;45373;-81
2022/09/10 07:22:58;;;;;;;;;3.40;2.00;;;;;-144.96;100.00;116156.88;5077926;28;44717;-81
2022/09/10 07:25:25;;;;;;;;;3.80;2.00;;;;;-144.96;100.00;116156.88;5077088;27;45520;-82
2022/09/10 07:27:51;;;;;;;;;2.00;2.00;;;;;-144.96;100.00;116156.88;5077405;27;45465;-82
2022/09/10 07:30:17;;;;;;;;;6.80;3.00;;;;;-144.96;100.00;116156.88;5078062;27;45404;-81
2022/09/10 07:32:44;;;;;;;;;2.00;2.00;;;;;-144.96;100.00;116156.88;5084002;27;45668;-81
2022/09/10 07:35:10;;;;;;;;;2.60;2.00;;;;;-144.96;100.00;116156.88;5084441;27;45314;-81
2022/09/10 07:37:35;;;;;;;;;3.00;2.00;;;;;-144.96;100.00;116156.88;5080120;27;45362;-81
2022/09/10 07:40:02;;;;;;;;;1.75;0.25;;;;;-144.96;100.00;116156.88;5077321;27;45261;-82
2022/09/10 07:42:28;;;;;;;;;3.20;2.00;;;;;-144.96;100.00;116156.88;5077141;27;44916;-83
2022/09/10 07:44:53;;;;;;;;;4.75;3.00;;;;;-144.96;100.00;116156.88;5077527;27;45375;-81
2022/09/10 07:47:19;;;;;;;;;4.25;3.75;;;;;-144.96;100.00;116156.88;5076556;27;45314;-85
2022/09/10 07:49:45;;;;;;;;;2.00;2.00;;;;;-144.96;100.00;116156.88;5077954;27;45603;-85
2022/09/10 07:52:11;;;;;;;;;1.00;1.00;;;;;-144.96;100.00;116156.88;5078665;27;45444;-85
2022/09/10 07:54:37;;;;;;;;;3.50;3.00;;;;;-144.96;100.00;116156.88;5080215;27;45365;-85
2022/09/10 07:57:03;;;;;;;;;4.25;3.00;;;;;-144.96;100.00;116154.81;5082297;27;44801;-84
2022/09/10 07:59:30;;;;;;;;;6.20;3.00;;;;;-144.96;100.00;115892.81;5080901;27;44876;-84
2022/09/10 08:01:56;;;;;;;;;2.40;2.20;;;;;-144.96;100.00;114844.97;5078793;27;45370;-84
2022/09/10 08:04:22;;;;;;;;;2.80;2.80;;;;;-144.96;100.00;114321.16;5079885;27;46006;-84
2022/09/10 08:06:47;;;;;;;;;3.00;3.00;;;;;-144.96;100.00;114844.97;5083868;28;45246;-84
2022/09/10 08:09:13;;;;;;;;;1.00;1.00;;;;;-144.96;100.00;114583.06;5086426;27;44795;-84
2022/09/10 08:11:40;;;;;;;;;2.00;1.75;;;;;-144.96;100.00;114583.06;5086082;27;44958;-84
2022/09/10 08:14:05;;;;;;;;;2.80;2.80;;;;;-144.96;100.00;114583.06;5081223;28;45367;-84
2022/09/10 08:16:31;;;;;;;;;3.75;2.25;;;;;-144.96;100.00;113535.53;5078657;27;45367;-84
2022/09/10 08:18:59;;;;;;;;;5.00;2.00;;;;;-144.96;100.00;111703.03;5079747;27;45244;-85
2022/09/10 08:21:25;;;;;;;;;10.80;4.00;;;;;-144.96;100.00;111179.59;5077017;28;45573;-84
2022/09/10 08:23:53;;;;;;;;;3.80;2.60;;;;;-144.96;100.00;111441.31;5077656;27;46088;-84
2022/09/10 08:26:22;;;;;;;;;4.40;2.80;;;;;-144.96;100.00;111179.59;5077772;27;45239;-84
2022/09/10 08:28:48;;;;;;;;;2.40;2.40;;;;;-144.96;100.00;111179.59;5078306;27;45381;-84
2022/09/10 08:31:15;;;;;;;;;4.00;4.00;;;;;-144.96;100.00;109609.75;5084593;27;45519;-85
2022/09/10 08:33:40;;;;;;;;;3.00;3.00;;;;;-144.96;100.00;108040.47;5087700;27;45274;-86
2022/09/10 08:36:09;;;;;;;;;2.60;2.20;;;;;-144.96;100.00;107517.53;5079743;27;45350;-85
2022/09/10 08:38:38;;;;;;;;;3.40;2.00;;;;;-144.96;100.00;106733.22;5083471;27;44654;-85
2022/09/10 08:41:12;;;;;;;;;6.00;2.40;;;;;-144.96;100.00;105687.72;5084718;27;44757;-85
2022/09/10 08:43:52;;;;;;;;;2.40;2.40;;;;;-144.96;100.00;105687.72;5083146;27;45576;-86
2022/09/10 08:46:24;;;;;;;;;3.00;3.00;;;;;-144.96;100.00;103597.53;5083930;27;44806;-86
2022/09/10 08:48:59;;;;;;;;;4.40;2.20;;;;;-144.96;100.00;102552.84;5088678;27;45551;-85
2022/09/10 08:51:32;;;;;;;;;2.60;2.20;;;;;-144.96;100.00;100725.28;5081313;27;45290;-85
2022/09/10 08:54:16;;;;;;;;;3.60;3.60;;;;;-144.96;100.00;98376.75;5066658;28;45428;-84
2022/09/10 08:56:44;;;;;;;;;3.40;2.00;;;;;-144.96;100.00;97333.41;5084651;27;45347;-85
2022/09/10 08:59:32;;;;;;;;;5.20;3.00;;;;;-144.96;100.00;94986.84;5083100;28;45381;-85
2022/09/10 09:02:04;;;;;;;;;2.60;2.40;;;;;-144.96;100.00;91339.34;5071985;28;45223;-85
2022/09/10 09:05:18;;;;;;;;;5.00;3.40;;;;;-144.96;100.00;90037.47;5079007;27;47232;-85
2022/09/10 09:07:45;;;;;;;;;7.80;3.00;;;;;-144.96;100.00;89516.84;5035176;28;45498;-85
2022/09/10 09:10:38;;;;;;;;;4.80;3.00;;;;;-144.96;100.00;89777.16;5034800;28;45245;-85
2022/09/10 09:13:31;;;;;;;;;3.00;3.00;;;;;-144.96;100.00;91599.78;5036082;28;45603;-86
2022/09/10 09:16:28;;;;;;;;;5.80;2.60;;;;;-144.96;100.00;94465.56;5034753;28;45655;-85
2022/09/10 09:19:07;;;;;;;;;3.00;3.00;;;;;-144.96;100.00;98376.75;4936502;28;45597;-84
2022/09/10 09:21:52;;;;;;;;;3.00;3.00;;;;;-144.96;100.00;102030.59;4937340;28;45488;-83
2022/09/10 09:24:29;;;;;;;;;2.00;2.00;;;;;-144.96;100.00;103858.75;4937124;28;45457;-83
2022/09/10 09:27:08;;;;;;;;;4.00;2.60;;;;;-144.96;100.00;106733.22;4937317;28;45141;-84
2022/09/10 09:29:42;;;;;;;;;2.00;2.00;;;;;-144.96;100.00;107779.00;4922575;28;44825;-84
2022/09/10 09:32:12;;;;;;;;;8.00;2.00;;;;;-144.96;100.00;108825.03;4936937;28;45408;-84
2022/09/10 09:34:48;;;;;;;;;2.60;2.60;;;;;-144.96;100.00;108040.47;4937222;28;45471;-83
2022/09/10 09:37:20;;;;;;;;;4.40;3.40;;;;;-144.96;100.00;108040.47;4940626;28;45343;-83
2022/09/10 09:40:05;;;;;;;;;2.00;2.00;;;;;-144.96;100.00;107517.53;4964917;28;44872;-83
2022/09/10 09:42:48;;;;;;;;;2.80;2.00;;;;;-144.96;100.00;107256.06;4961979;28;45505;-83
2022/09/10 09:45:27;;;;;;;;;3.00;3.00;;;;;-144.96;100.00;106733.22;4959780;28;46158;-83
2022/09/10 09:47:53;;;;;;;;;4.00;4.00;;;;;-144.96;100.00;106471.81;4962144;28;45094;-83
2022/09/10 09:50:19;;;;;;;;;1.80;1.80;;;;;-144.96;100.00;105949.06;4964118;28;45215;-84
2022/09/10 09:52:45;;;;;;;;;1.00;1.00;;;;;-144.96;100.00;105165.06;4963394;28;45381;-83
2022/09/10 09:55:23;;;;;;;;;2.00;2.00;;;;;-144.96;100.00;106471.81;4984877;28;44933;-84
2022/09/10 09:58:18;;;;;;;;;1.80;1.80;;;;;-144.96;100.00;109871.34;5059853;28;45643;-83
2022/09/10 10:00:43;;;;;;;;;2.80;1.60;;;;;-144.96;100.00;114059.25;5059963;28;45509;-83
2022/09/10 10:03:15;;;;;;;;;2.25;2.25;;;;;-144.96;100.00;116156.88;5060632;28;45444;-84
2022/09/10 10:05:41;;;;;;;;;4.40;2.20;;;;;-144.96;100.00;116156.88;5061364;28;45394;-84
2022/09/10 10:08:27;;;;;;;;;1.00;1.00;;;;;-144.96;100.00;116156.88;5061441;28;45387;-84
2022/09/10 10:10:53;;;;;;;;;3.80;3.20;;;;;-144.96;100.00;116156.88;5075799;27;45889;-84
2022/09/10 10:13:22;;;;;;;;;3.00;3.00;;;;;-144.96;100.00;116156.88;5061327;28;45314;-84
2022/09/10 10:15:48;;;;;;;;;2.60;2.60;;;;;-144.96;100.00;116156.88;5061720;28;45403;-83
2022/09/10 10:18:30;;;;;;;;;3.50;3.00;;;;;-144.96;100.00;116156.88;5060000;28;45374;-84
2022/09/10 10:21:13;;;;;;;;;3.20;2.60;;;;;-144.96;100.00;116156.88;5061144;28;45346;-84
2022/09/10 10:23:39;;;;;;;;;7.80;3.80;;;;;-144.96;100.00;116156.88;5060756;28;45481;-84
2022/09/10 10:26:19;;;;;;;;;4.80;4.80;;;;;-144.96;100.00;116156.88;5059661;28;45383;-83
2022/09/10 10:28:50;;;;;;;;;2.60;1.20;;;;;-144.96;100.00;116156.88;5061161;28;45354;-83
2022/09/10 10:31:17;;;;;;;;;3.20;3.20;;;;;-144.96;100.00;116156.88;5062013;28;45209;-84
2022/09/10 10:34:15;;;;;;;;;5.40;4.00;;;;;-144.96;100.00;116156.88;5061379;28;45498;-86
2022/09/10 10:36:59;;;;;;;;;4.00;4.00;;;;;-144.96;100.00;116156.88;5060895;28;44859;-85
2022/09/10 10:39:39;;;;;;;;;3.20;3.20;;;;;-144.96;100.00;116156.88;5060838;28;45418;-84
2022/09/10 10:42:26;;;;;;;;;2.40;2.40;;;;;-144.96;100.00;116156.88;5073899;27;45398;-83
2022/09/10 10:45:02;;;;;;;;;4.80;4.00;;;;;-144.96;100.00;116156.88;5099613;27;45231;-83
2022/09/10 10:47:39;;;;;;;;;4.20;4.20;;;;;-144.96;100.00;116156.88;5100071;27;45303;-83
2022/09/10 10:50:28;;;;;;;;;3.40;3.40;;;;;-144.96;100.00;116156.88;5094413;27;45508;-84
2022/09/10 10:53:27;;;;;;;;;3.40;3.40;;;;;-144.96;100.00;116156.88;5080041;27;45493;-84
2022/09/10 10:56:13;;;;;;;;;3.20;3.20;;;;;-144.96;100.00;116156.88;5079307;27;45506;-83
2022/09/10 10:58:48;;;;;;;;;5.40;4.20;;;;;-144.96;100.00;116156.88;5079718;27;45434;-83
2022/09/10 11:01:24;;;;;;;;;5.80;5.00;;;;;-144.96;100.00;116156.88;5081118;27;45304;-84
2022/09/10 11:04:14;;;;;;;;;6.40;4.20;;;;;-144.96;100.00;116156.88;5062491;28;45292;-84
2022/09/10 11:06:46;;;;;;;;;4.60;4.60;;;;;-144.96;100.00;116156.88;5064290;28;44804;-84
2022/09/10 11:09:22;;;;;;;;;8.20;4.00;;;;;-144.96;100.00;116156.88;5062126;28;45499;-83
2022/09/10 11:12:01;;;;;;;;;4.00;3.00;;;;;-144.96;100.00;116156.88;5062183;28;45512;-84
2022/09/10 11:14:34;;;;;;;;;4.60;4.60;;;;;-144.96;100.00;116156.88;5062517;28;45295;-84